Time;durP1;ratioP1;P1;durP2;ratioP2;P2;SDS_P1;SDS_P2;PMS_P1;PMS_P2;Temp;Humidity;BMP_temperature;BMP_pressure;BME280_temperature;BME280_humidity;BME280_pressure;Samples;Min_cycle;Max_cycle;Signal;HPM_P1;HPM_P2
2021/06/29 00:01:23;;;;;;;1.23;1.23;;;;;;;18.88;63.53;100238.81;6216709;23;20004;-72
2021/06/29 00:03:48;;;;;;;1.50;1.40;;;;;;;18.86;63.20;100236.38;6217527;23;20014;-74
2021/06/29 00:06:13;;;;;;;1.10;1.10;;;;;;;18.79;63.10;100236.00;6246429;23;20083;-74
2021/06/29 00:08:39;;;;;;;1.23;1.23;;;;;;;18.71;64.07;100228.53;6217954;23;20016;-73
2021/06/29 00:11:04;;;;;;;1.13;1.13;;;;;;;18.65;64.11;100214.84;6246608;23;20020;-75
2021/06/29 00:13:30;;;;;;;1.00;1.00;;;;;;;18.60;63.63;100216.94;6245539;23;20015;-75
2021/06/29 00:15:56;;;;;;;1.30;1.30;;;;;;;18.47;64.23;100204.88;6219820;23;20012;-73
2021/06/29 00:18:21;;;;;;;1.60;1.30;;;;;;;18.47;63.90;100208.47;6246824;22;20320;-73
2021/06/29 00:20:47;;;;;;;1.20;1.20;;;;;;;18.41;64.08;100211.72;6218417;23;20439;-75
2021/06/29 00:23:12;;;;;;;2.53;1.05;;;;;;;18.30;64.16;100206.50;6247157;23;20000;-74
2021/06/29 00:25:38;;;;;;;1.55;1.45;;;;;;;18.24;64.53;100210.56;6244949;23;20004;-72
2021/06/29 00:28:04;;;;;;;1.40;1.40;;;;;;;18.18;64.42;100216.56;6247257;23;20012;-74
2021/06/29 00:30:29;;;;;;;3.00;1.73;;;;;;;18.10;65.03;100209.88;6217875;23;20019;-74
2021/06/29 00:32:55;;;;;;;2.42;2.33;;;;;;;18.04;65.06;100211.97;6219040;23;20043;-72
2021/06/29 00:35:20;;;;;;;1.95;1.85;;;;;;;17.98;65.28;100204.16;6216399;23;20008;-73
2021/06/29 00:37:46;;;;;;;1.65;1.50;;;;;;;17.93;65.11;100194.88;6248712;23;20019;-72
2021/06/29 00:40:12;;;;;;;4.95;2.40;;;;;;;17.91;65.22;100204.63;6242757;23;20004;-73
2021/06/29 00:42:38;;;;;;;6.35;2.45;;;;;;;17.92;65.49;100198.78;6247986;23;20106;-73
2021/06/29 00:45:05;;;;;;;4.60;1.90;;;;;;;17.96;65.53;100205.28;6218266;23;20012;-73
2021/06/29 00:47:31;;;;;;;1.90;1.80;;;;;;;18.05;65.57;100207.28;6219712;23;20431;-72
2021/06/29 00:49:58;;;;;;;1.52;1.42;;;;;;;18.11;65.35;100206.78;6246465;23;20106;-74
2021/06/29 00:52:24;;;;;;;1.73;1.63;;;;;;;18.19;65.55;100213.47;6220320;23;20085;-75
2021/06/29 00:54:50;;;;;;;1.08;1.08;;;;;;;18.25;65.02;100205.84;6250952;23;20431;-76
2021/06/29 00:57:16;;;;;;;1.75;1.65;;;;;;;18.26;64.85;100208.28;6250227;23;20004;-75
2021/06/29 00:59:42;;;;;;;1.60;1.50;;;;;;;18.27;65.01;100209.91;6249861;23;20011;-73
2021/06/29 01:02:10;;;;;;;2.13;2.03;;;;;;;18.31;65.01;100221.13;6248093;23;20034;-74
2021/06/29 01:04:39;;;;;;;1.88;1.77;;;;;;;18.31;65.07;100213.69;6248946;23;20004;-76
2021/06/29 01:07:05;;;;;;;2.30;2.20;;;;;;;18.37;64.70;100219.03;6221060;23;20027;-73
2021/06/29 01:09:32;;;;;;;1.85;1.75;;;;;;;18.37;65.11;100214.34;6249359;23;20012;-74
2021/06/29 01:11:58;;;;;;;2.25;1.98;;;;;;;18.38;64.92;100221.47;6246862;23;20004;-74
2021/06/29 01:14:23;;;;;;;2.08;1.98;;;;;;;18.36;64.42;100225.72;6243918;23;20050;-74
2021/06/29 01:16:49;;;;;;;1.60;1.42;;;;;;;18.35;64.42;100215.78;6249084;23;20019;-73
2021/06/29 01:19:19;;;;;;;2.42;2.33;;;;;;;18.33;64.73;100212.53;6247872;22;20016;-74
2021/06/29 01:21:47;;;;;;;2.03;1.73;;;;;;;18.28;64.70;100216.25;6221059;23;20314;-72
2021/06/29 01:24:18;;;;;;;2.38;2.10;;;;;;;18.25;64.74;100208.59;6219967;23;20028;-73
2021/06/29 01:32:18;;;;;;;2.50;2.33;;;;;;;18.11;64.95;100203.22;6201426;23;20012;-73
2021/06/29 01:34:44;;;;;;;1.33;1.33;;;;;;;18.09;64.37;100191.66;6220646;23;20023;-74
2021/06/29 01:37:10;;;;;;;3.58;2.28;;;;;;;18.07;65.06;100205.00;6194456;23;20035;-73
2021/06/29 01:39:36;;;;;;;3.28;1.90;;;;;;;18.08;64.87;100196.38;6220746;23;20011;-74
2021/06/29 01:42:02;;;;;;;2.15;2.05;;;;;;;17.99;64.65;100189.19;6220205;23;20004;-73
2021/06/29 01:44:31;;;;;;;4.32;1.48;;;;;;;18.05;64.86;100201.75;6195418;23;20016;-75
2021/06/29 01:46:57;;;;;;;1.90;1.80;;;;;;;18.00;65.01;100182.53;6218293;23;20063;-73
2021/06/29 01:49:24;;;;;;;1.95;1.85;;;;;;;18.03;65.00;100196.50;6218921;23;20008;-72
2021/06/29 01:51:50;;;;;;;2.30;1.83;;;;;;;18.05;64.82;100190.69;6219480;23;20011;-72
2021/06/29 01:54:15;;;;;;;3.33;1.30;;;;;;;18.04;64.74;100195.38;6194220;23;20194;-73
2021/06/29 01:56:41;;;;;;;1.88;1.77;;;;;;;18.02;65.15;100194.06;6219671;23;20015;-72
2021/06/29 01:59:10;;;;;;;1.73;1.63;;;;;;;18.03;64.77;100193.75;6245705;23;20027;-72
2021/06/29 02:01:37;;;;;;;2.00;1.90;;;;;;;18.03;65.02;100174.38;6245529;23;20007;-73
2021/06/29 02:04:03;;;;;;;2.08;1.98;;;;;;;18.02;64.86;100177.47;6246579;23;20415;-73
2021/06/29 02:06:29;;;;;;;2.35;2.25;;;;;;;18.00;65.48;100171.44;6253196;23;20213;-74
2021/06/29 02:08:54;;;;;;;1.95;1.85;;;;;;;17.97;64.78;100175.69;6196723;23;20024;-74
2021/06/29 02:11:20;;;;;;;1.80;1.70;;;;;;;17.93;65.36;100166.38;6221778;23;20023;-73
2021/06/29 02:13:45;;;;;;;2.38;2.25;;;;;;;17.93;64.94;100178.28;6221609;23;19996;-74
2021/06/29 02:16:11;;;;;;;3.25;2.75;;;;;;;17.92;65.21;100179.41;6253150;23;20382;-75
2021/06/29 02:18:37;;;;;;;2.60;2.08;;;;;;;17.89;65.37;100177.25;6250466;22;20106;-74
2021/06/29 02:21:05;;;;;;;2.97;2.78;;;;;;;17.89;65.14;100182.00;6253344;23;20075;-76
2021/06/29 02:23:31;;;;;;;1.98;1.88;;;;;;;17.88;65.44;100180.34;6250360;23;20008;-75
2021/06/29 02:25:57;;;;;;;2.33;2.22;;;;;;;17.88;65.40;100181.16;6248891;23;20004;-74
2021/06/29 02:28:22;;;;;;;3.47;3.28;;;;;;;17.86;65.60;100177.91;6249256;23;20011;-73
2021/06/29 02:30:48;;;;;;;2.97;2.78;;;;;;;17.84;65.95;100180.16;6246366;23;20004;-74
2021/06/29 02:33:13;;;;;;;2.63;2.53;;;;;;;17.78;65.69;100175.91;6220735;23;20008;-70
2021/06/29 02:35:39;;;;;;;2.20;2.10;;;;;;;17.81;65.83;100189.09;6242040;23;20470;-72
2021/06/29 02:38:05;;;;;;;2.08;1.98;;;;;;;17.76;65.70;100184.53;6244460;23;20004;-71
2021/06/29 02:40:31;;;;;;;2.78;2.58;;;;;;;17.75;65.96;100195.91;6242608;23;20061;-75
2021/06/29 02:42:56;;;;;;;2.65;2.47;;;;;;;17.71;66.16;100189.41;6247349;23;20007;-71
2021/06/29 02:45:22;;;;;;;1.83;1.73;;;;;;;17.72;66.04;100199.31;6217345;23;20016;-72
2021/06/29 02:47:49;;;;;;;1.52;1.42;;;;;;;17.71;65.72;100200.44;6240859;23;20027;-72
2021/06/29 02:50:15;;;;;;;2.72;2.63;;;;;;;17.69;65.92;100202.75;6240862;23;20008;-71
2021/06/29 02:52:40;;;;;;;3.05;2.85;;;;;;;17.69;66.56;100202.75;6215710;23;20364;-71
2021/06/29 02:55:08;;;;;;;2.75;2.65;;;;;;;17.66;66.22;100201.41;6242778;23;20012;-72
2021/06/29 02:57:34;;;;;;;3.72;3.53;;;;;;;17.66;66.47;100200.63;6244632;23;20480;-71
2021/06/29 03:00:00;;;;;;;4.85;4.45;;;;;;;17.57;66.78;100184.78;6217481;23;20016;-70
2021/06/29 03:02:25;;;;;;;5.07;3.80;;;;;;;17.61;67.46;100199.63;6218100;23;20415;-72
2021/06/29 03:04:51;;;;;;;3.63;3.35;;;;;;;17.58;66.98;100197.50;6208150;23;20050;-73
2021/06/29 03:07:16;;;;;;;4.15;3.85;;;;;;;17.54;67.22;100193.72;6216154;23;20091;-70
2021/06/29 03:09:42;;;;;;;4.72;4.43;;;;;;;17.51;67.37;100188.00;6213558;23;20087;-72
2021/06/29 03:12:09;;;;;;;9.68;4.75;;;;;;;17.51;67.13;100196.28;6237853;23;20304;-73
2021/06/29 03:14:36;;;;;;;4.57;4.18;;;;;;;17.51;67.34;100191.59;6219370;23;20008;-72
2021/06/29 03:17:04;;;;;;;5.90;5.38;;;;;;;17.49;67.26;100185.56;6227513;23;20485;-72
2021/06/29 03:19:32;;;;;;;5.03;4.70;;;;;;;17.43;67.20;100176.63;6235553;22;20024;-72
2021/06/29 03:21:57;;;;;;;6.07;5.47;;;;;;;17.41;67.74;100178.88;6235673;22;20007;-71
2021/06/29 03:24:23;;;;;;;4.65;4.38;;;;;;;17.32;67.55;100172.50;6244076;23;20300;-72
2021/06/29 03:26:49;;;;;;;5.57;3.67;;;;;;;17.33;67.69;100187.91;6217424;23;20004;-73
2021/06/29 03:29:14;;;;;;;4.65;4.30;;;;;;;17.28;67.81;100169.53;6217762;23;20015;-73
2021/06/29 03:31:40;;;;;;;4.45;4.15;;;;;;;17.33;67.79;100176.06;6193121;23;20039;-71
2021/06/29 03:34:06;;;;;;;3.78;3.58;;;;;;;17.35;67.62;100174.63;6219085;23;20004;-73
2021/06/29 03:36:31;;;;;;;7.10;3.00;;;;;;;17.33;67.68;100171.34;6243474;23;20411;-72
2021/06/29 03:38:57;;;;;;;5.85;4.32;;;;;;;17.35;67.85;100179.34;6246204;22;20004;-73
2021/06/29 03:41:24;;;;;;;5.22;4.75;;;;;;;17.27;68.08;100176.22;6246088;22;20079;-71
2021/06/29 03:43:49;;;;;;;5.07;4.78;;;;;;;17.27;67.83;100173.44;6218162;23;20008;-72
2021/06/29 03:46:15;;;;;;;5.20;4.90;;;;;;;17.28;68.06;100175.06;6248011;23;20008;-72
2021/06/29 03:48:40;;;;;;;4.85;4.55;;;;;;;17.33;68.13;100190.69;6250560;22;20434;-72
2021/06/29 03:51:06;;;;;;;6.82;5.93;;;;;;;17.33;67.87;100192.66;6247516;23;20008;-72
2021/06/29 03:53:31;;;;;;;5.68;5.28;;;;;;;17.31;67.86;100189.41;6241820;23;20014;-72
2021/06/29 03:55:57;;;;;;;7.60;5.57;;;;;;;17.35;68.23;100191.19;6217740;23;20008;-71
2021/06/29 03:58:22;;;;;;;7.43;6.72;;;;;;;17.33;68.06;100187.13;6218426;23;20008;-72
2021/06/29 04:00:48;;;;;;;8.68;6.80;;;;;;;17.30;68.10;100182.22;6242831;23;20000;-72
2021/06/29 04:03:13;;;;;;;9.63;6.47;;;;;;;17.22;67.94;100173.56;6240654;22;20083;-72
2021/06/29 04:05:39;;;;;;;7.72;6.28;;;;;;;17.27;68.08;100181.75;6242153;22;20008;-70
2021/06/29 04:08:05;;;;;;;8.13;6.03;;;;;;;17.26;68.25;100176.53;6237101;22;20003;-70
2021/06/29 04:10:31;;;;;;;7.63;6.80;;;;;;;17.26;67.89;100182.88;6242959;22;20004;-71
2021/06/29 04:12:57;;;;;;;11.48;5.70;;;;;;;17.28;67.97;100185.31;6241710;22;20024;-72
2021/06/29 04:15:23;;;;;;;5.88;5.38;;;;;;;17.26;67.99;100177.34;6240036;23;20015;-72
2021/06/29 04:17:48;;;;;;;6.68;5.90;;;;;;;17.31;68.24;100181.91;6239601;22;20012;-72
2021/06/29 04:20:14;;;;;;;5.38;4.88;;;;;;;17.37;67.99;100190.88;6215537;23;20012;-72
2021/06/29 04:22:40;;;;;;;7.22;6.55;;;;;;;17.37;68.14;100194.44;6236828;23;20004;-72
2021/06/29 04:25:07;;;;;;;7.57;6.65;;;;;;;17.26;67.86;100188.41;6237963;23;19996;-72
2021/06/29 04:27:33;;;;;;;9.05;7.18;;;;;;;17.35;68.21;100198.69;6213605;23;20326;-71
2021/06/29 04:29:59;;;;;;;6.35;5.90;;;;;;;17.32;68.33;100193.78;6189527;23;20012;-70
2021/06/29 04:32:24;;;;;;;5.72;5.03;;;;;;;17.32;68.38;100202.06;6238068;23;20004;-72
2021/06/29 04:34:49;;;;;;;6.72;5.22;;;;;;;17.28;68.20;100191.66;6239241;23;20011;-70
2021/06/29 04:37:15;;;;;;;5.40;5.00;;;;;;;17.35;67.96;100202.25;6240080;23;20011;-71
2021/06/29 04:39:43;;;;;;;4.90;4.50;;;;;;;17.36;67.73;100200.28;6240009;23;20091;-71
2021/06/29 04:42:08;;;;;;;6.55;6.00;;;;;;;17.32;67.83;100185.47;6190228;23;20023;-70
2021/06/29 04:44:38;;;;;;;9.00;6.05;;;;;;;17.39;67.88;100202.41;6215153;23;20008;-71
2021/06/29 04:47:04;;;;;;;7.57;6.60;;;;;;;17.32;68.07;100196.53;6242183;23;20008;-69
2021/06/29 04:49:30;;;;;;;8.93;6.32;;;;;;;17.34;68.12;100199.81;6235734;23;20472;-73
2021/06/29 04:51:55;;;;;;;9.35;6.68;;;;;;;17.33;67.79;100203.69;6241362;23;20008;-70
2021/06/29 04:54:21;;;;;;;7.20;5.70;;;;;;;17.30;67.93;100204.34;6203761;23;20433;-70
2021/06/29 04:56:46;;;;;;;6.07;5.28;;;;;;;17.26;67.93;100204.16;6242942;23;20008;-70
2021/06/29 04:59:12;;;;;;;6.25;5.65;;;;;;;17.32;67.86;100213.94;6191676;23;20012;-71
2021/06/29 05:01:37;;;;;;;5.32;4.82;;;;;;;17.32;68.08;100213.09;6212899;23;20018;-71
2021/06/29 05:04:03;;;;;;;6.28;5.78;;;;;;;17.32;67.64;100224.16;6241993;23;20046;-71
2021/06/29 05:06:28;;;;;;;6.10;5.60;;;;;;;17.33;67.67;100223.03;6239837;23;20004;-71
2021/06/29 05:08:54;;;;;;;5.15;4.78;;;;;;;17.33;67.92;100225.81;6215152;23;20107;-71
2021/06/29 05:11:19;;;;;;;6.70;5.97;;;;;;;17.32;67.82;100224.16;6240052;23;20008;-72
2021/06/29 05:13:45;;;;;;;7.55;4.95;;;;;;;17.28;67.99;100213.75;6242817;23;20004;-72
2021/06/29 05:16:10;;;;;;;6.20;5.65;;;;;;;17.22;67.88;100203.97;6190111;23;20008;-70
2021/06/29 05:18:36;;;;;;;7.47;6.05;;;;;;;17.30;68.04;100221.72;6242779;22;20023;-73
2021/06/29 05:21:02;;;;;;;6.25;5.40;;;;;;;17.32;68.10;100213.09;6241558;23;20075;-72
2021/06/29 05:23:28;;;;;;;12.63;6.70;;;;;;;17.33;67.65;100215.56;6217225;23;20008;-72
2021/06/29 05:25:54;;;;;;;6.28;5.70;;;;;;;17.35;67.96;100212.50;6189375;23;20046;-71
2021/06/29 05:28:23;;;;;;;6.28;5.60;;;;;;;17.37;67.88;100215.75;6215462;23;20012;-72
2021/06/29 05:30:48;;;;;;;5.82;5.53;;;;;;;17.35;67.59;100207.78;6189822;23;20008;-72
2021/06/29 05:33:15;;;;;;;8.55;5.50;;;;;;;17.39;67.49;100210.72;6215017;23;20011;-72
2021/06/29 05:35:41;;;;;;;5.03;4.72;;;;;;;17.44;67.75;100216.13;6241487;23;20008;-73
2021/06/29 05:38:07;;;;;;;4.78;4.38;;;;;;;17.41;67.51;100206.50;6215522;23;20327;-72
2021/06/29 05:40:33;;;;;;;6.70;6.10;;;;;;;17.44;67.52;100207.81;6214484;23;20008;-72
2021/06/29 05:42:59;;;;;;;11.68;6.88;;;;;;;17.49;67.57;100224.25;6241921;23;20087;-73
2021/06/29 05:45:25;;;;;;;6.65;5.82;;;;;;;17.43;67.32;100211.72;6215665;23;20043;-71
2021/06/29 05:47:51;;;;;;;7.13;6.45;;;;;;;17.49;67.40;100218.72;6189196;23;20035;-71
2021/06/29 05:50:17;;;;;;;6.85;6.28;;;;;;;17.51;67.53;100218.41;6242120;23;20079;-72
2021/06/29 05:52:43;;;;;;;7.25;6.55;;;;;;;17.46;67.15;100224.91;6235677;23;20042;-71
2021/06/29 05:55:09;;;;;;;5.95;5.10;;;;;;;17.54;67.19;100232.44;6235627;23;20434;-71
2021/06/29 05:57:36;;;;;;;6.68;5.35;;;;;;;17.51;67.43;100227.53;6241337;23;20004;-71
2021/06/29 06:00:08;;;;;;;7.30;4.88;;;;;;;17.57;67.05;100239.28;6239040;23;20372;-70
2021/06/29 06:02:33;;;;;;;4.35;4.05;;;;;;;17.57;66.92;100231.78;6240441;23;20007;-70
2021/06/29 06:04:59;;;;;;;9.57;3.63;;;;;;;17.60;66.84;100242.22;6240194;23;20020;-73
2021/06/29 06:07:24;;;;;;;4.57;4.15;;;;;;;17.63;67.15;100247.09;6239842;23;20004;-71
2021/06/29 06:09:49;;;;;;;4.65;4.18;;;;;;;17.66;66.75;100244.84;6189823;23;20016;-70
2021/06/29 06:12:15;;;;;;;7.88;3.30;;;;;;;17.67;66.77;100240.94;6233778;23;20012;-72
2021/06/29 06:14:40;;;;;;;4.90;3.40;;;;;;;17.76;66.58;100252.88;6216482;23;20427;-73
2021/06/29 06:17:06;;;;;;;3.03;2.92;;;;;;;17.81;66.84;100258.25;6241141;23;20012;-77
2021/06/29 06:19:31;;;;;;;3.75;3.38;;;;;;;17.82;66.56;100237.75;6239983;23;20107;-74
2021/06/29 06:21:57;;;;;;;4.65;4.25;;;;;;;17.84;66.14;100243.78;6249934;22;19996;-74
2021/06/29 06:24:22;;;;;;;3.85;3.65;;;;;;;17.84;66.67;100241.00;6247339;22;20015;-75
2021/06/29 06:26:49;;;;;;;3.88;3.67;;;;;;;17.86;66.61;100244.28;6245028;22;20000;-72
2021/06/29 06:29:14;;;;;;;6.43;4.30;;;;;;;17.88;66.02;100247.53;6237126;22;20083;-72
2021/06/29 06:31:40;;;;;;;4.45;4.15;;;;;;;17.89;66.30;100248.38;6243451;22;20020;-73
2021/06/29 06:34:05;;;;;;;3.97;3.70;;;;;;;17.91;66.06;100240.59;6242630;22;20383;-74
2021/06/29 06:36:31;;;;;;;4.60;4.30;;;;;;;17.92;65.90;100242.22;6242913;23;20031;-75
2021/06/29 06:38:56;;;;;;;3.67;3.35;;;;;;;17.95;66.24;100249.88;6246363;22;20008;-73
2021/06/29 06:41:22;;;;;;;4.05;3.75;;;;;;;18.02;66.06;100246.63;6243732;23;20004;-75
2021/06/29 06:43:48;;;;;;;4.10;3.63;;;;;;;18.08;65.92;100251.72;6248461;22;20036;-73
2021/06/29 06:46:13;;;;;;;3.75;3.45;;;;;;;18.14;65.98;100244.09;6245232;22;20004;-73
2021/06/29 06:48:39;;;;;;;4.00;3.80;;;;;;;18.19;65.74;100241.16;6239981;23;20493;-74
2021/06/29 06:51:05;;;;;;;3.13;3.00;;;;;;;18.30;65.30;100256.31;6242772;23;20000;-73
2021/06/29 06:53:31;;;;;;;6.45;3.10;;;;;;;18.38;65.19;100253.91;6240878;23;20008;-71
2021/06/29 06:55:57;;;;;;;4.00;3.80;;;;;;;18.43;64.90;100260.09;6239174;23;20000;-73
2021/06/29 06:58:23;;;;;;;2.92;2.72;;;;;;;18.52;64.39;100254.56;6240447;23;20012;-72
2021/06/29 07:00:48;;;;;;;3.22;3.03;;;;;;;18.59;64.47;100254.91;6238478;22;20004;-72
2021/06/29 07:03:14;;;;;;;3.03;2.92;;;;;;;18.62;64.53;100259.78;6240328;22;20323;-71
2021/06/29 07:05:40;;;;;;;3.58;3.30;;;;;;;18.76;64.17;100264.34;6240474;22;20004;-72
2021/06/29 07:08:16;;;;;;;4.45;3.28;;;;;;;18.74;63.68;100255.56;6244392;22;20039;-74
2021/06/29 07:10:42;;;;;;;2.97;2.88;;;;;;;18.83;63.54;100264.69;6219179;23;20051;-72
2021/06/29 07:13:18;;;;;;;4.18;3.17;;;;;;;18.93;63.68;100261.63;6243682;23;20004;-70
2021/06/29 07:15:43;;;;;;;3.33;3.13;;;;;;;19.02;63.14;100262.41;6243178;22;20015;-72
2021/06/29 07:18:14;;;;;;;2.55;2.40;;;;;;;19.13;63.23;100267.66;6244508;22;20016;-71
2021/06/29 07:20:42;;;;;;;3.15;2.95;;;;;;;19.14;63.01;100264.56;6218158;23;20045;-72
2021/06/29 07:23:08;;;;;;;3.22;3.00;;;;;;;19.22;62.67;100271.22;6248667;23;19996;-71
2021/06/29 07:25:33;;;;;;;2.90;2.70;;;;;;;19.28;62.14;100275.44;6245721;23;20034;-71
2021/06/29 07:27:59;;;;;;;3.15;2.30;;;;;;;19.39;62.43;100283.41;6244756;23;20386;-70
2021/06/29 07:30:24;;;;;;;4.32;2.50;;;;;;;19.45;62.14;100284.88;6246361;23;20004;-71
2021/06/29 07:32:55;;;;;;;2.33;2.10;;;;;;;19.55;61.91;100278.97;6220688;23;20438;-69
2021/06/29 07:35:21;;;;;;;2.47;2.33;;;;;;;19.64;61.19;100287.25;6220729;23;20065;-70
2021/06/29 07:37:46;;;;;;;2.42;2.33;;;;;;;19.70;60.83;100286.78;6221307;23;20457;-70
2021/06/29 07:40:12;;;;;;;2.70;2.50;;;;;;;19.67;60.53;100287.44;6222981;23;20078;-71
2021/06/29 07:42:38;;;;;;;2.58;2.38;;;;;;;19.73;60.78;100301.13;6249594;23;20412;-71
2021/06/29 07:45:06;;;;;;;2.28;2.08;;;;;;;19.60;60.91;100287.13;6225097;23;20438;-71
2021/06/29 07:47:31;;;;;;;1.92;1.83;;;;;;;19.57;60.41;100282.25;6248794;23;20000;-69
2021/06/29 07:49:57;;;;;;;1.45;1.35;;;;;;;19.63;61.23;100292.00;6221468;23;20031;-69
2021/06/29 07:52:25;;;;;;;1.30;1.30;;;;;;;19.64;60.58;100299.19;6220797;23;20000;-70
2021/06/29 07:54:51;;;;;;;1.90;1.80;;;;;;;19.61;60.56;100294.31;6221565;23;20057;-70
2021/06/29 07:57:17;;;;;;;4.50;2.33;;;;;;;19.60;60.21;100295.44;6223080;23;20012;-71
2021/06/29 07:59:42;;;;;;;3.45;3.22;;;;;;;19.53;60.65;100297.91;6220268;23;20280;-71
2021/06/29 08:02:08;;;;;;;2.80;2.60;;;;;;;19.49;60.64;100299.72;6196176;23;20004;-69
2021/06/29 08:04:33;;;;;;;2.05;1.95;;;;;;;19.44;60.23;100280.50;6248972;23;20008;-70
2021/06/29 08:06:59;;;;;;;2.10;2.00;;;;;;;19.57;60.15;100303.63;6221663;23;20039;-70
2021/06/29 08:09:25;;;;;;;1.90;1.52;;;;;;;19.53;60.48;100284.84;6247374;23;20338;-69
2021/06/29 08:11:50;;;;;;;1.77;1.67;;;;;;;19.62;59.76;100295.91;6249546;23;20015;-69
2021/06/29 08:14:16;;;;;;;2.05;1.95;;;;;;;19.61;59.15;100304.56;6222984;23;20331;-69
2021/06/29 08:16:45;;;;;;;1.65;1.63;;;;;;;19.56;59.57;100302.78;6247574;23;20628;-70
2021/06/29 08:19:10;;;;;;;1.98;1.88;;;;;;;19.56;59.12;100308.34;6242020;22;20071;-69
2021/06/29 08:21:36;;;;;;;5.18;2.83;;;;;;;19.54;59.66;100311.44;6221565;23;20062;-71
2021/06/29 08:24:01;;;;;;;5.47;2.60;;;;;;;19.44;59.34;100305.44;6244436;23;20014;-70
2021/06/29 08:26:27;;;;;;;2.28;2.13;;;;;;;19.47;59.17;100316.69;6244647;23;20004;-69
2021/06/29 08:28:52;;;;;;;2.47;1.88;;;;;;;19.46;59.86;100317.00;6220527;23;20000;-72
2021/06/29 08:31:21;;;;;;;1.83;1.63;;;;;;;19.45;59.60;100316.22;6242822;23;20005;-70
2021/06/29 08:33:47;;;;;;;1.70;1.60;;;;;;;19.50;60.05;100318.00;6247334;23;20000;-69
2021/06/29 08:36:12;;;;;;;1.40;1.27;;;;;;;19.55;59.47;100312.25;6194823;23;20008;-71
2021/06/29 08:38:40;;;;;;;1.60;1.50;;;;;;;19.66;59.16;100324.63;6193502;23;20007;-70
2021/06/29 08:41:06;;;;;;;3.83;2.05;;;;;;;19.69;59.51;100332.28;6222628;23;20006;-71
2021/06/29 08:43:32;;;;;;;1.88;1.65;;;;;;;19.67;59.20;100325.47;6219688;23;20004;-70
2021/06/29 08:45:58;;;;;;;2.10;2.00;;;;;;;19.62;59.33;100317.31;6216092;23;20010;-73
2021/06/29 08:48:24;;;;;;;1.98;1.88;;;;;;;19.58;59.05;100319.94;6217474;23;20087;-68
2021/06/29 08:50:52;;;;;;;4.30;2.42;;;;;;;19.50;59.49;100321.56;6214588;23;20007;-69
2021/06/29 08:53:17;;;;;;;2.88;2.75;;;;;;;19.43;59.67;100323.22;6216986;23;20004;-70
2021/06/29 08:55:47;;;;;;;2.63;2.53;;;;;;;19.40;59.59;100326.66;6242291;23;20004;-69
2021/06/29 08:58:17;;;;;;;2.80;2.30;;;;;;;19.36;59.78;100332.03;6243940;23;20035;-68
2021/06/29 09:00:43;;;;;;;3.15;2.95;;;;;;;19.23;59.86;100331.06;6240133;23;20008;-69
2021/06/29 09:03:08;;;;;;;3.35;3.05;;;;;;;19.13;59.62;100318.34;6239903;23;20726;-70
2021/06/29 09:05:34;;;;;;;3.35;2.78;;;;;;;19.12;60.11;100321.44;6167207;23;20106;-69
2021/06/29 09:08:02;;;;;;;2.60;2.40;;;;;;;19.16;60.21;100327.97;6189235;23;20046;-71
2021/06/29 09:10:28;;;;;;;2.95;2.75;;;;;;;19.17;60.06;100335.13;6242792;23;20000;-70
2021/06/29 09:12:55;;;;;;;3.17;2.97;;;;;;;19.14;60.20;100333.00;6187238;23;20085;-69
2021/06/29 09:15:24;;;;;;;3.08;2.83;;;;;;;19.14;60.65;100333.00;6215444;23;20008;-71
2021/06/29 09:17:50;;;;;;;6.25;3.30;;;;;;;19.24;60.46;100345.75;6243059;22;20140;-69
2021/06/29 09:20:28;;;;;;;2.22;2.13;;;;;;;19.31;60.56;100341.31;6216107;23;20008;-70
2021/06/29 09:22:56;;;;;;;3.35;3.15;;;;;;;19.31;60.50;100341.31;6242350;23;20000;-70
2021/06/29 09:25:30;;;;;;;3.22;3.05;;;;;;;19.25;59.90;100331.56;6213252;23;20012;-69
2021/06/29 09:27:57;;;;;;;2.90;2.70;;;;;;;19.21;60.42;100329.75;6215764;23;20016;-70
2021/06/29 09:30:41;;;;;;;3.90;3.70;;;;;;;19.32;60.70;100342.97;6238370;23;20035;-70
2021/06/29 09:33:08;;;;;;;3.60;3.40;;;;;;;19.31;60.42;100346.88;6218633;23;20008;-70
2021/06/29 09:35:35;;;;;;;3.65;3.38;;;;;;;19.32;60.05;100337.41;6243441;23;20054;-70
2021/06/29 09:38:02;;;;;;;3.10;2.90;;;;;;;19.40;60.06;100338.53;6244408;23;20004;-71
2021/06/29 09:40:32;;;;;;;3.00;2.75;;;;;;;19.61;60.03;100341.47;6242300;23;20166;-72
2021/06/29 09:43:35;;;;;;;3.22;3.03;;;;;;;19.94;59.62;100348.44;6243028;23;20011;-69
2021/06/29 09:46:03;;;;;;;2.88;2.67;;;;;;;19.98;59.20;100347.44;6181216;23;20008;-70
2021/06/29 09:48:34;;;;;;;2.30;2.17;;;;;;;20.07;59.75;100339.06;6220488;23;20004;-72
2021/06/29 09:51:05;;;;;;;2.70;2.60;;;;;;;20.31;59.51;100351.53;6241318;23;20427;-71
2021/06/29 09:53:34;;;;;;;3.03;2.83;;;;;;;20.49;58.83;100355.06;6216053;23;20049;-70
2021/06/29 09:56:06;;;;;;;2.88;2.78;;;;;;;20.66;58.45;100360.56;6244018;23;20508;-70
2021/06/29 09:58:33;;;;;;;2.42;2.33;;;;;;;20.75;58.23;100352.97;6216201;23;20015;-70
2021/06/29 10:01:00;;;;;;;2.25;2.15;;;;;;;20.87;57.72;100354.22;6216768;23;20068;-71
2021/06/29 10:03:32;;;;;;;2.92;2.67;;;;;;;20.92;57.18;100359.56;6240322;23;20007;-70
2021/06/29 10:06:08;;;;;;;2.22;2.03;;;;;;;20.86;57.43;100361.72;6238570;23;20026;-71
2021/06/29 10:08:35;;;;;;;3.17;2.50;;;;;;;20.77;56.84;100357.38;6244200;23;20035;-70
2021/06/29 10:11:18;;;;;;;2.60;2.50;;;;;;;20.72;57.10;100373.09;6242248;23;20007;-70
2021/06/29 10:13:49;;;;;;;2.38;2.28;;;;;;;20.55;57.59;100362.06;6243129;23;20008;-71
2021/06/29 10:16:28;;;;;;;;;;;;;;;;;;;;;
2021/06/29 10:40:26;;;;;;;2.10;2.00;;;;;;;22.25;56.02;100363.53;5955055;23;20398;-72
2021/06/29 10:42:58;;;;;;;2.58;2.47;;;;;;;22.62;55.38;100358.81;6039198;23;20010;-75
2021/06/29 10:45:24;;;;;;;6.82;2.85;;;;;;;23.02;54.54;100360.84;6247756;23;20004;-76
2021/06/29 10:47:51;;;;;;;2.47;2.35;;;;;;;23.55;54.47;100359.19;6242024;23;20012;-75
2021/06/29 10:50:22;;;;;;;1.88;1.77;;;;;;;24.05;53.53;100361.38;6243660;23;20004;-75
2021/06/29 10:52:47;;;;;;;2.45;1.38;;;;;;;24.47;53.11;100362.00;6220988;23;20015;-72
2021/06/29 10:55:26;;;;;;;2.20;1.92;;;;;;;24.76;51.72;100365.50;6242283;23;20007;-72
2021/06/29 10:57:55;;;;;;;1.58;1.58;;;;;;;24.98;50.72;100372.38;6245902;23;20004;-72
2021/06/29 11:00:20;;;;;;;2.70;2.58;;;;;;;25.19;50.35;100377.63;6245190;23;20035;-74
2021/06/29 11:03:09;;;;;;;2.28;2.17;;;;;;;25.31;48.78;100373.94;6244411;23;20429;-72
2021/06/29 11:06:02;;;;;;;2.00;1.80;;;;;;;25.38;48.91;100362.88;6213483;23;20016;-74
2021/06/29 11:08:45;;;;;;;2.22;2.13;;;;;;;25.64;48.24;100364.19;6250692;23;20000;-76
2021/06/29 11:11:14;;;;;;;1.90;1.80;;;;;;;25.67;47.69;100369.03;6190561;23;20098;-71
2021/06/29 11:13:49;;;;;;;1.40;1.40;;;;;;;25.76;47.22;100373.22;6246238;23;20598;-74
2021/06/29 11:16:16;;;;;;;2.17;1.90;;;;;;;25.75;47.18;100370.78;6233447;23;20282;-75
2021/06/29 11:18:45;;;;;;;1.00;1.00;;;;;;;25.70;47.68;100365.50;6247395;23;20069;-73
2021/06/29 11:21:41;;;;;;;2.75;1.70;;;;;;;25.88;47.06;100363.03;6217272;23;20023;-73
2021/06/29 11:24:40;;;;;;;1.45;1.35;;;;;;;26.17;47.24;100358.78;6217259;23;20079;-73
2021/06/29 11:27:06;;;;;;;1.27;1.17;;;;;;;26.39;46.37;100359.13;6150285;23;20095;-72
2021/06/29 11:29:43;;;;;;;1.10;1.10;;;;;;;26.70;46.17;100357.25;6243155;23;20027;-71
2021/06/29 11:32:38;;;;;;;1.10;1.10;;;;;;;26.87;45.31;100356.69;6245181;23;20007;-74
2021/06/29 11:35:39;;;;;;;2.08;0.90;;;;;;;26.99;44.53;100364.88;6214025;23;20024;-73
2021/06/29 11:38:05;;;;;;;0.82;0.82;;;;;;;26.90;44.18;100358.72;6243859;23;20000;-70
2021/06/29 11:40:31;;;;;;;1.33;1.23;;;;;;;26.74;43.19;100350.50;6245714;23;20156;-72
2021/06/29 11:43:30;;;;;;;1.25;1.25;;;;;;;26.61;43.73;100354.69;6220117;23;20445;-74
2021/06/29 11:46:00;;;;;;;0.90;0.90;;;;;;;26.35;43.95;100352.66;6190326;23;20035;-72
2021/06/29 11:48:44;;;;;;;0.95;0.95;;;;;;;26.46;44.73;100359.25;6243906;23;20030;-73
2021/06/29 11:51:10;;;;;;;0.80;0.80;;;;;;;26.49;43.74;100350.09;6244733;23;20058;-71
2021/06/29 11:53:42;;;;;;;1.27;1.17;;;;;;;26.61;43.82;100355.47;6167007;23;20427;-73
2021/06/29 11:56:12;;;;;;;1.20;1.10;;;;;;;26.61;43.55;100349.06;6243555;23;20008;-72